createdAt,value
2018-11-13T00:02:18.028Z,101479.41
2018-11-13T00:04:44.962Z,101484.13
2018-11-13T00:07:11.869Z,101481.77
2018-11-13T00:09:38.768Z,101472.67
2018-11-13T00:12:06.297Z,101476.38
2018-11-13T00:14:33.241Z,101485.99
2018-11-13T00:17:01.256Z,101494.59
2018-11-13T00:19:28.232Z,101498.64
2018-11-13T00:21:55.236Z,101498.11
2018-11-13T00:24:22.190Z,101510.58
2018-11-13T00:26:49.140Z,101512.42
2018-11-13T00:29:16.103Z,101512.76
2018-11-13T00:31:43.025Z,101509.20
2018-11-13T00:34:12.026Z,101509.88
2018-11-13T00:36:38.942Z,101502.47
2018-11-13T00:39:08.347Z,101506.52
2018-11-13T00:41:35.256Z,101511.91
2018-11-13T00:44:02.195Z,101514.59
2018-11-13T00:46:29.213Z,101523.02
2018-11-13T00:48:56.324Z,101526.05
2018-11-13T00:51:24.415Z,101524.19
2018-11-13T00:53:51.408Z,101538.83
2018-11-13T00:56:19.161Z,101535.80
2018-11-13T00:58:46.962Z,101540.36
2018-11-13T01:01:14.018Z,101533.09
2018-11-13T01:03:40.957Z,101538.83
2018-11-13T01:06:07.865Z,101533.28
2018-11-13T01:08:34.812Z,101537.14
2018-11-13T01:11:01.721Z,101538.48
2018-11-13T01:13:29.097Z,101536.13
2018-11-13T01:15:55.530Z,101534.63
2018-11-13T01:18:22.457Z,101526.55
2018-11-13T01:20:49.377Z,101522.02
2018-11-13T01:23:16.316Z,101535.00
2018-11-13T01:25:43.223Z,101542.37
2018-11-13T01:28:10.130Z,101541.21
2018-11-13T01:30:37.045Z,101542.22
2018-11-13T01:33:03.996Z,101533.12
2018-11-13T01:35:30.896Z,101536.83
2018-11-13T01:37:57.809Z,101535.99
2018-11-13T01:40:24.719Z,101539.89
2018-11-13T01:42:51.636Z,101533.48
2018-11-13T01:45:19.318Z,101534.50
2018-11-13T01:47:46.228Z,101534.65
2018-11-13T01:50:13.445Z,101536.02
2018-11-13T01:52:40.361Z,101534.84
2018-11-13T01:55:09.043Z,101528.61
2018-11-13T01:57:36.225Z,101537.70
2018-11-13T02:00:03.281Z,101550.32
2018-11-13T02:02:30.226Z,101549.31
2018-11-13T02:04:57.130Z,101540.22
2018-11-13T02:07:24.070Z,101534.67
2018-11-13T02:09:50.989Z,101530.47
2018-11-13T02:12:17.885Z,101521.22
2018-11-13T02:14:44.786Z,101516.31
2018-11-13T02:17:11.669Z,101505.56
2018-11-13T02:19:38.584Z,101506.57
2018-11-13T02:22:05.494Z,101500.50
2018-11-13T02:24:32.410Z,101507.08
2018-11-13T02:26:59.304Z,101511.97
2018-11-13T02:29:26.216Z,101512.08
2018-11-13T02:31:53.116Z,101514.66
2018-11-13T02:34:20.048Z,101519.38
2018-11-13T02:36:46.932Z,101515.33
2018-11-13T02:39:13.834Z,101517.02
2018-11-13T02:41:40.805Z,101517.17
2018-11-13T02:44:08.296Z,101513.65
2018-11-13T02:46:35.208Z,101516.50
2018-11-13T02:49:02.125Z,101515.31
2018-11-13T02:54:03.002Z,101515.16
2018-11-13T02:56:29.920Z,101511.30
2018-11-13T02:58:56.833Z,101519.53
2018-11-13T03:01:23.794Z,101527.61
2018-11-13T03:03:50.749Z,101529.45
2018-11-13T03:06:17.628Z,101530.80
2018-11-13T03:08:44.534Z,101531.81
2018-11-13T03:11:11.425Z,101522.23
2018-11-13T03:13:38.353Z,101523.73
2018-11-13T03:16:05.290Z,101527.10
2018-11-13T03:18:32.210Z,101518.17
2018-11-13T03:20:59.132Z,101517.02
2018-11-13T03:23:26.064Z,101524.91
2018-11-13T03:25:52.970Z,101523.75
2018-11-13T03:28:19.905Z,101521.72
2018-11-13T03:30:46.792Z,101524.75
2018-11-13T03:33:13.680Z,101530.29
2018-11-13T03:35:40.587Z,101522.40
2018-11-13T03:38:07.488Z,101521.87
2018-11-13T03:40:34.363Z,101510.27
2018-11-13T03:43:01.265Z,101505.22
2018-11-13T03:45:28.168Z,101502.01
2018-11-13T03:47:55.072Z,101498.82
2018-11-13T03:50:22.223Z,101491.27
2018-11-13T03:52:49.136Z,101491.60
2018-11-13T03:55:16.632Z,101494.44
2018-11-13T03:57:44.391Z,101489.05
2018-11-13T04:00:13.085Z,101489.05
2018-11-13T04:02:40.332Z,101488.74
2018-11-13T04:05:08.528Z,101479.66
2018-11-13T04:07:39.245Z,101476.28
2018-11-13T04:10:06.197Z,101474.76
2018-11-13T04:12:33.118Z,101478.46
2018-11-13T04:15:00.027Z,101483.02
2018-11-13T04:17:26.952Z,101473.89
2018-11-13T04:19:53.876Z,101490.05
2018-11-13T04:22:27.565Z,101496.44
2018-11-13T04:24:54.480Z,101500.66
2018-11-13T04:27:21.396Z,101498.64
2018-11-13T04:29:48.304Z,101509.89
2018-11-13T04:32:15.228Z,101503.52
2018-11-13T04:34:42.158Z,101510.92
2018-11-13T04:37:09.064Z,101519.83
2018-11-13T04:39:35.992Z,101519.00
2018-11-13T04:42:02.932Z,101517.80
2018-11-13T04:44:29.835Z,101519.33
2018-11-13T04:46:56.744Z,101522.36
2018-11-13T04:49:23.709Z,101519.17
2018-11-13T04:51:50.710Z,101527.05
2018-11-13T04:54:17.625Z,101508.05
2018-11-13T04:56:44.556Z,101502.16
2018-11-13T04:59:11.485Z,101491.39
2018-11-13T05:01:38.417Z,101487.50
2018-11-13T05:04:05.461Z,101488.34
2018-11-13T05:06:32.405Z,101499.63
2018-11-13T05:08:59.338Z,101515.95
2018-11-13T05:11:26.263Z,101533.09
2018-11-13T05:13:53.247Z,101527.20
2018-11-13T05:16:20.167Z,101526.88
2018-11-13T05:18:47.076Z,101523.66
2018-11-13T05:21:14.041Z,101532.08
2018-11-13T05:23:40.977Z,101540.84
2018-11-13T05:26:07.949Z,101544.20
2018-11-13T05:28:34.893Z,101551.27
2018-11-13T05:31:01.849Z,101544.73
2018-11-13T05:33:28.762Z,101552.61
2018-11-13T05:35:55.683Z,101551.92
2018-11-13T05:38:22.621Z,101553.29
2018-11-13T05:40:49.539Z,101546.90
2018-11-13T05:43:16.451Z,101546.54
2018-11-13T05:45:43.396Z,101548.56
2018-11-13T05:48:10.316Z,101542.70
2018-11-13T05:50:37.272Z,101549.23
2018-11-13T05:53:04.474Z,101546.54
2018-11-13T05:55:31.420Z,101546.89
2018-11-13T05:57:58.340Z,101558.81
2018-11-13T06:00:33.803Z,101559.84
2018-11-13T06:03:01.528Z,101562.84
2018-11-13T06:05:28.674Z,101553.28
2018-11-13T06:07:55.715Z,101543.36
2018-11-13T06:10:22.650Z,101554.44
2018-11-13T06:12:49.585Z,101556.47
2018-11-13T06:15:16.828Z,101559.83
2018-11-13T06:17:43.774Z,101549.91
2018-11-13T06:20:11.984Z,101545.69
2018-11-13T06:22:38.908Z,101547.55
2018-11-13T06:25:07.296Z,101557.78
2018-11-13T06:27:34.241Z,101554.93
2018-11-13T06:30:01.155Z,101551.25
2018-11-13T06:32:28.090Z,101550.39
2018-11-13T06:34:55.017Z,101553.59
2018-11-13T06:37:21.941Z,101549.22
2018-11-13T06:39:48.868Z,101557.95
2018-11-13T06:42:15.806Z,101562.65
2018-11-13T06:44:42.837Z,101554.58
2018-11-13T06:47:09.779Z,101543.81
2018-11-13T06:49:36.793Z,101550.55
2018-11-13T06:52:03.721Z,101550.72
2018-11-13T06:54:42.242Z,101556.44
2018-11-13T06:57:09.206Z,101566.69
2018-11-13T06:59:36.128Z,101573.09
2018-11-13T07:02:03.093Z,101567.19
2018-11-13T07:04:30.034Z,101569.39
2018-11-13T07:06:56.983Z,101561.31
2018-11-13T07:09:23.921Z,101558.31
2018-11-13T07:11:50.853Z,101564.52
2018-11-13T07:14:17.802Z,101562.66
2018-11-13T07:16:44.734Z,101556.95
2018-11-13T07:19:11.653Z,101555.63
2018-11-13T07:21:38.598Z,101554.30
2018-11-13T07:24:05.512Z,101552.96
2018-11-13T07:26:32.453Z,101553.64
2018-11-13T07:29:00.036Z,101547.42
2018-11-13T07:31:26.969Z,101555.31
2018-11-13T07:33:53.915Z,101546.91
2018-11-13T07:36:20.846Z,101552.64
2018-11-13T07:38:47.776Z,101548.60
2018-11-13T07:41:14.782Z,101552.81
2018-11-13T07:43:41.659Z,101550.80
2018-11-13T07:46:08.571Z,101547.78
2018-11-13T07:48:35.489Z,101551.63
2018-11-13T07:51:02.470Z,101545.42
2018-11-13T07:53:29.345Z,101537.02
2018-11-13T07:55:56.269Z,101537.67
2018-11-13T07:58:23.206Z,101524.03
2018-11-13T08:00:50.122Z,101530.62
2018-11-13T08:03:31.075Z,101524.22
2018-11-13T08:05:58.329Z,101525.38
2018-11-13T08:08:25.261Z,101535.87
2018-11-13T08:10:52.201Z,101535.87
2018-11-13T08:13:19.238Z,101540.39
2018-11-13T08:15:46.077Z,101536.88
2018-11-13T08:18:13.005Z,101538.91
2018-11-13T08:20:39.933Z,101539.21
2018-11-13T08:23:06.878Z,101542.92
2018-11-13T08:25:33.866Z,101544.28
2018-11-13T08:28:00.843Z,101545.80
2018-11-13T08:30:27.730Z,101539.06
2018-11-13T08:32:54.654Z,101542.23
2018-11-13T08:35:21.595Z,101546.75
2018-11-13T08:37:48.560Z,101544.38
2018-11-13T08:40:16.851Z,101556.96
2018-11-13T08:42:44.425Z,101543.43
2018-11-13T08:45:12.173Z,101539.34
2018-11-13T08:47:39.233Z,101544.19
2018-11-13T08:50:06.235Z,101550.08
2018-11-13T08:52:33.193Z,101552.97
2018-11-13T08:55:00.118Z,101561.72
2018-11-13T08:57:27.047Z,101569.95
2018-11-13T08:59:53.970Z,101570.06
2018-11-13T09:02:20.925Z,101567.20
2018-11-13T09:04:47.898Z,101556.16
2018-11-13T09:07:14.797Z,101564.91
2018-11-13T09:09:41.816Z,101562.55
2018-11-13T09:12:08.775Z,101569.91
2018-11-13T09:14:35.733Z,101568.75
2018-11-13T09:17:02.664Z,101576.85
2018-11-13T09:19:29.752Z,101562.02
2018-11-13T09:21:56.534Z,101552.36
2018-11-13T09:24:23.520Z,101555.37
2018-11-13T09:26:50.436Z,101559.59
2018-11-13T09:29:17.365Z,101559.78
2018-11-13T09:31:44.317Z,101556.87
2018-11-13T09:34:11.244Z,101565.66
2018-11-13T09:36:38.157Z,101581.84
2018-11-13T09:39:07.686Z,101596.34
2018-11-13T09:41:34.604Z,101596.71
2018-11-13T09:44:01.530Z,101598.59
2018-11-13T09:46:28.541Z,101594.41
2018-11-13T09:48:55.445Z,101604.25
2018-11-13T09:51:22.388Z,101599.69
2018-11-13T09:53:49.396Z,101603.51
2018-11-13T09:56:16.269Z,101599.66
2018-11-13T09:58:43.286Z,101605.90
2018-11-13T10:01:10.407Z,101586.38
2018-11-13T10:03:37.964Z,101604.80
2018-11-13T10:06:04.090Z,101595.02
2018-11-13T10:08:31.038Z,101602.73
2018-11-13T10:10:57.968Z,101604.25
2018-11-13T10:13:24.917Z,101602.42
2018-11-13T10:15:51.862Z,101600.16
2018-11-13T10:18:18.970Z,101597.16
2018-11-13T10:20:45.754Z,101605.74
2018-11-13T10:23:12.690Z,101605.06
2018-11-13T10:25:39.608Z,101611.69
2018-11-13T10:28:06.583Z,101602.63
2018-11-13T10:30:33.502Z,101603.11
2018-11-13T10:33:00.412Z,101604.61
2018-11-13T10:35:27.363Z,101603.93
2018-11-13T10:37:54.293Z,101607.64
2018-11-13T10:40:21.960Z,101622.34
2018-11-13T10:42:49.220Z,101624.50
2018-11-13T10:45:20.992Z,101615.73
2018-11-13T10:47:47.933Z,101614.57
2018-11-13T10:50:17.699Z,101612.48
2018-11-13T10:52:44.567Z,101605.69
2018-11-13T10:55:11.613Z,101604.98
2018-11-13T10:57:39.501Z,101596.81
2018-11-13T11:00:13.284Z,101604.00
2018-11-13T11:02:46.192Z,101600.14
2018-11-13T11:05:13.045Z,101603.38
2018-11-13T11:07:39.976Z,101611.82
2018-11-13T11:10:07.229Z,101615.20
2018-11-13T11:12:34.159Z,101617.22
2018-11-13T11:15:01.085Z,101612.22
2018-11-13T11:17:28.034Z,101584.50
2018-11-13T11:19:54.940Z,101608.19
2018-11-13T11:22:21.872Z,101612.70
2018-11-13T11:24:48.805Z,101617.56
2018-11-13T11:27:16.082Z,101613.56
2018-11-13T11:29:43.004Z,101612.52
2018-11-13T11:32:09.937Z,101623.33
2018-11-13T11:34:36.864Z,101620.32
2018-11-13T11:37:04.124Z,101620.95
2018-11-13T11:39:31.863Z,101612.42
2018-11-13T11:42:05.696Z,101613.93
2018-11-13T11:44:32.681Z,101621.27
2018-11-13T11:46:59.577Z,101626.03
2018-11-13T11:49:26.504Z,101592.59
2018-11-13T11:51:53.451Z,101629.77
2018-11-13T11:54:20.364Z,101622.30
2018-11-13T11:56:47.380Z,101610.98
2018-11-13T11:59:14.301Z,101624.33
2018-11-13T12:01:41.250Z,101629.10
2018-11-13T12:04:08.212Z,101624.92
2018-11-13T12:06:35.149Z,101628.84
2018-11-13T12:09:02.113Z,101639.50
2018-11-13T12:11:29.058Z,101637.66
2018-11-13T12:13:55.988Z,101627.88
2018-11-13T12:16:22.905Z,101639.31
2018-11-13T12:18:49.889Z,101636.95
2018-11-13T12:21:16.817Z,101638.95
2018-11-13T12:23:43.775Z,101624.92
2018-11-13T12:26:10.707Z,101626.06
2018-11-13T12:28:37.640Z,101632.20
2018-11-13T12:31:04.672Z,101630.84
2018-11-13T12:33:31.701Z,101631.39
2018-11-13T12:35:58.576Z,101629.18
2018-11-13T12:38:25.525Z,101628.89
2018-11-13T12:40:52.464Z,101627.20
2018-11-13T12:43:19.404Z,101633.77
2018-11-13T12:45:46.344Z,101632.95
2018-11-13T12:48:13.264Z,101632.12
2018-11-13T12:50:45.911Z,101633.63
2018-11-13T12:53:12.860Z,101626.87
2018-11-13T12:55:39.875Z,101628.75
2018-11-13T12:58:06.727Z,101639.22
2018-11-13T13:00:33.659Z,101644.81
2018-11-13T13:03:00.601Z,101642.48
2018-11-13T13:05:27.541Z,101640.61
2018-11-13T13:07:54.499Z,101646.53
2018-11-13T13:10:21.784Z,101641.81
2018-11-13T13:12:48.775Z,101638.30
2018-11-13T13:15:16.494Z,101638.14
2018-11-13T13:17:43.909Z,101645.38
2018-11-13T13:20:13.433Z,101640.32
2018-11-13T13:22:40.501Z,101645.23
2018-11-13T13:25:09.806Z,101641.18
2018-11-13T13:27:37.044Z,101646.58
2018-11-13T13:30:04.401Z,101648.75
2018-11-13T13:32:31.317Z,101646.23
2018-11-13T13:34:58.232Z,101649.58
2018-11-13T13:37:25.145Z,101654.67
2018-11-13T13:39:52.085Z,101650.77
2018-11-13T13:42:18.992Z,101649.77
2018-11-13T13:44:45.901Z,101655.49
2018-11-13T13:47:12.813Z,101660.03
2018-11-13T13:49:39.719Z,101658.68
2018-11-13T13:52:06.637Z,101653.09
2018-11-13T13:54:33.619Z,101659.36
2018-11-13T13:57:00.490Z,101659.99
2018-11-13T13:59:27.469Z,101656.95
2018-11-13T14:01:54.361Z,101669.44
2018-11-13T14:06:54.954Z,101664.19
2018-11-13T14:09:21.956Z,101672.12
2018-11-13T14:11:48.981Z,101673.11
2018-11-13T14:14:15.924Z,101667.41
2018-11-13T14:16:42.885Z,101675.66
2018-11-13T14:19:09.805Z,101673.63
2018-11-13T14:21:36.735Z,101671.61
2018-11-13T14:24:03.650Z,101673.15
2018-11-13T14:26:30.582Z,101673.14
2018-11-13T14:28:57.551Z,101676.52
2018-11-13T14:31:24.425Z,101683.60
2018-11-13T14:33:51.335Z,101675.70
2018-11-13T14:36:18.276Z,101690.36
2018-11-13T14:38:45.193Z,101692.91
2018-11-13T14:41:12.116Z,101701.16
2018-11-13T14:43:39.055Z,101703.52
2018-11-13T14:46:06.077Z,101706.03
2018-11-13T14:48:33.018Z,101713.60
2018-11-13T14:50:59.936Z,101715.32
2018-11-13T14:53:26.916Z,101714.13
2018-11-13T14:55:53.768Z,101721.05
2018-11-13T14:58:20.668Z,101726.30
2018-11-13T15:00:47.613Z,101721.91
2018-11-13T15:03:15.774Z,101722.77
2018-11-13T15:05:42.884Z,101715.35
2018-11-13T15:08:10.234Z,101725.81
2018-11-13T15:10:41.119Z,101728.84
2018-11-13T15:13:08.706Z,101732.03
2018-11-13T15:15:35.634Z,101735.41
2018-11-13T15:18:02.563Z,101737.28
2018-11-13T15:20:29.511Z,101733.57
2018-11-13T15:22:56.454Z,101734.92
2018-11-13T15:25:23.428Z,101741.66
2018-11-13T15:27:51.524Z,101751.96
2018-11-13T15:30:21.005Z,101750.77
2018-11-13T15:32:54.404Z,101751.63
2018-11-13T15:35:22.657Z,101752.14
2018-11-13T15:37:49.608Z,101754.16
2018-11-13T15:40:18.225Z,101752.14
2018-11-13T15:42:45.457Z,101758.21
2018-11-13T15:45:13.487Z,101758.03
2018-11-13T15:47:41.092Z,101759.88
2018-11-13T15:50:10.399Z,101758.21
2018-11-13T15:52:37.306Z,101760.57
2018-11-13T15:55:05.608Z,101765.96
2018-11-13T15:57:32.510Z,101766.31
2018-11-13T15:59:59.429Z,101773.05
2018-11-13T16:02:26.320Z,101770.53
2018-11-13T16:04:53.283Z,101776.41
2018-11-13T16:07:20.184Z,101780.47
2018-11-13T16:09:47.102Z,101785.53
2018-11-13T16:12:14.309Z,101787.89
2018-11-13T16:14:41.215Z,101789.23
2018-11-13T16:17:08.171Z,101800.20
2018-11-13T16:19:35.094Z,101796.81
2018-11-13T16:22:02.013Z,101809.64
2018-11-13T16:24:28.947Z,101803.06
2018-11-13T16:26:55.890Z,101813.83
2018-11-13T16:29:22.929Z,101812.33
2018-11-13T16:31:49.913Z,101816.89
2018-11-13T16:34:16.846Z,101817.23
2018-11-13T16:36:43.899Z,101814.88
2018-11-13T16:39:12.967Z,101824.98
2018-11-13T16:41:40.821Z,101822.44
2018-11-13T16:44:08.229Z,101829.00
2018-11-13T16:46:35.636Z,101831.20
2018-11-13T16:49:02.581Z,101828.66
2018-11-13T16:51:29.867Z,101838.97
2018-11-13T16:54:05.798Z,101843.01
2018-11-13T16:56:37.539Z,101843.35
2018-11-13T16:59:04.721Z,101853.64
2018-11-13T17:01:31.656Z,101848.75
2018-11-13T17:03:58.659Z,101846.03
2018-11-13T17:06:25.704Z,101854.30
2018-11-13T17:08:52.642Z,101853.64
2018-11-13T17:11:19.565Z,101858.69
2018-11-13T17:13:46.481Z,101854.48
2018-11-13T17:16:13.497Z,101860.39
2018-11-13T17:18:40.360Z,101847.04
2018-11-13T17:21:07.313Z,101864.41
2018-11-13T17:23:34.268Z,101863.08
2018-11-13T17:26:01.166Z,101869.46
2018-11-13T17:28:28.113Z,101872.34
2018-11-13T17:30:54.984Z,101868.80
2018-11-13T17:33:21.942Z,101873.34
2018-11-13T17:35:48.875Z,101874.21
2018-11-13T17:38:15.809Z,101879.44
2018-11-13T17:40:42.740Z,101885.17
2018-11-13T17:43:09.665Z,101886.35
2018-11-13T17:45:37.896Z,101891.74
2018-11-13T17:48:06.041Z,101896.98
2018-11-13T17:50:34.351Z,101896.66
2018-11-13T17:53:01.383Z,101892.25
2018-11-13T17:55:28.308Z,101896.81
2018-11-13T17:57:56.724Z,101898.19
2018-11-13T18:00:27.181Z,101893.12
2018-11-13T18:02:54.141Z,101891.59
2018-11-13T18:05:22.186Z,101889.41
2018-11-13T18:07:49.708Z,101892.94
2018-11-13T18:10:16.677Z,101902.22
2018-11-13T18:12:43.644Z,101896.15
2018-11-13T18:15:19.635Z,101892.94
2018-11-13T18:17:46.956Z,101907.45
2018-11-13T18:20:18.624Z,101904.27
2018-11-13T18:22:45.844Z,101903.58
2018-11-13T18:25:12.793Z,101903.74
2018-11-13T18:27:41.394Z,101905.94
2018-11-13T18:30:12.596Z,101912.03
2018-11-13T18:32:39.898Z,101911.00
2018-11-13T18:35:08.153Z,101911.19
2018-11-13T18:37:35.183Z,101913.88
2018-11-13T18:40:02.137Z,101922.80
2018-11-13T18:42:29.059Z,101919.11
2018-11-13T18:44:56.107Z,101918.76
2018-11-13T18:47:22.996Z,101925.34
2018-11-13T18:49:49.932Z,101924.84
2018-11-13T18:52:16.870Z,101929.39
2018-11-13T18:54:43.814Z,101928.89
2018-11-13T18:57:10.737Z,101937.16
2018-11-13T18:59:37.675Z,101938.34
2018-11-13T19:02:05.048Z,101931.59
2018-11-13T19:04:31.997Z,101940.89
2018-11-13T19:06:58.925Z,101947.11
2018-11-13T19:09:25.831Z,101945.09
2018-11-13T19:11:52.927Z,101946.07
2018-11-13T19:14:19.680Z,101944.58
2018-11-13T19:16:47.085Z,101957.88
2018-11-13T19:19:14.129Z,101957.55
2018-11-13T19:21:41.438Z,101965.98
2018-11-13T19:24:08.389Z,101969.03
2018-11-13T19:26:35.300Z,101961.94
2018-11-13T19:29:02.200Z,101975.45
2018-11-13T19:31:29.115Z,101974.91
2018-11-13T19:33:56.049Z,101976.80
2018-11-13T19:36:23.150Z,101975.95
2018-11-13T19:38:49.907Z,101978.81
2018-11-13T19:41:16.816Z,101988.41
2018-11-13T19:43:43.732Z,101976.94
2018-11-13T19:46:10.648Z,101978.45
2018-11-13T19:48:37.558Z,101984.14
2018-11-13T19:53:38.157Z,101985.30
2018-11-13T19:56:05.486Z,101989.84
2018-11-13T19:58:32.398Z,101993.20
2018-11-13T20:00:59.424Z,101993.03
2018-11-13T20:03:26.391Z,101997.94
2018-11-13T20:05:53.423Z,101997.08
2018-11-13T20:08:20.348Z,102002.33
2018-11-13T20:10:47.280Z,102009.75
2018-11-13T20:13:14.389Z,102010.27
2018-11-13T20:15:41.325Z,102014.48
2018-11-13T20:18:08.245Z,102023.59
2018-11-13T20:20:36.253Z,102022.41
2018-11-13T20:23:04.471Z,102024.59
2018-11-13T20:25:32.451Z,102021.21
2018-11-13T20:27:59.441Z,102018.62
2018-11-13T20:30:30.768Z,102019.80
2018-11-13T20:32:57.781Z,102017.77
2018-11-13T20:35:24.809Z,102018.12
2018-11-13T20:37:52.417Z,102024.00
2018-11-13T20:40:21.613Z,102027.35
2018-11-13T20:42:51.068Z,102029.70
2018-11-13T20:45:18.093Z,102028.70
2018-11-13T20:47:45.060Z,102034.61
2018-11-13T20:50:14.324Z,102035.09
2018-11-13T20:52:41.327Z,102002.81
2018-11-13T20:55:08.529Z,102039.00
2018-11-13T20:57:35.783Z,102036.62
2018-11-13T21:00:03.213Z,102045.53
2018-11-13T21:02:30.181Z,102053.80
2018-11-13T21:04:58.462Z,102050.10
2018-11-13T21:07:25.489Z,102044.53
2018-11-13T21:09:52.881Z,102045.36
2018-11-13T21:12:19.356Z,102053.11
2018-11-13T21:14:46.300Z,102054.45
2018-11-13T21:17:13.765Z,102057.46
2018-11-13T21:19:40.616Z,102054.42
2018-11-13T21:22:07.534Z,102059.44
2018-11-13T21:24:34.512Z,102066.17
2018-11-13T21:27:01.456Z,102066.52
2018-11-13T21:29:28.389Z,102072.56
2018-11-13T21:31:55.341Z,102065.34
2018-11-13T21:34:22.240Z,102065.65
2018-11-13T21:36:49.205Z,102085.34
2018-11-13T21:39:16.057Z,102082.30
2018-11-13T21:41:42.956Z,102077.09
2018-11-13T21:44:09.869Z,102069.86
2018-11-13T21:46:37.120Z,102085.70
2018-11-13T21:49:04.590Z,102093.27
2018-11-13T21:51:31.492Z,102096.66
2018-11-13T21:53:58.392Z,102091.56
2018-11-13T21:56:25.296Z,102097.83
2018-11-13T21:58:52.222Z,102102.69
2018-11-13T22:01:19.405Z,102112.13
2018-11-13T22:03:46.427Z,102105.88
2018-11-13T22:06:13.264Z,102111.30
2018-11-13T22:08:40.194Z,102123.78
2018-11-13T22:11:07.117Z,102124.78
2018-11-13T22:13:34.020Z,102124.43
2018-11-13T22:16:00.921Z,102130.52
2018-11-13T22:18:27.855Z,102132.56
2018-11-13T22:20:54.805Z,102138.09
2018-11-13T22:23:22.039Z,102137.25
2018-11-13T22:25:48.660Z,102145.01
2018-11-13T22:28:15.596Z,102147.39
2018-11-13T22:30:42.493Z,102155.61
2018-11-13T22:33:09.405Z,102148.00
2018-11-13T22:35:36.324Z,102155.34
2018-11-13T22:38:03.252Z,102154.51
2018-11-13T22:40:30.165Z,102161.06
2018-11-13T22:42:57.809Z,102165.94
2018-11-13T22:45:25.945Z,102158.86
2018-11-13T22:47:53.209Z,102164.37
2018-11-13T22:50:23.537Z,102163.84
2018-11-13T22:52:51.043Z,102166.19
2018-11-13T22:55:18.352Z,102168.70
2018-11-13T22:57:46.020Z,102172.22
2018-11-13T23:00:20.151Z,102184.28
2018-11-13T23:02:48.498Z,102187.97
2018-11-13T23:05:15.395Z,102186.33
2018-11-13T23:07:42.329Z,102188.32
2018-11-13T23:10:10.788Z,102191.67
2018-11-13T23:12:38.044Z,102195.36
2018-11-13T23:15:06.624Z,102199.10
2018-11-13T23:17:33.492Z,102201.75
2018-11-13T23:20:00.396Z,102197.41
2018-11-13T23:22:27.329Z,102200.93
2018-11-13T23:24:54.240Z,102205.54
2018-11-13T23:27:21.146Z,102192.20
2018-11-13T23:29:48.080Z,102204.38
2018-11-13T23:32:14.988Z,102206.55
2018-11-13T23:34:41.892Z,102205.19
2018-11-13T23:37:08.813Z,102203.03
2018-11-13T23:39:35.744Z,102211.11
2018-11-13T23:42:02.675Z,102210.59
2018-11-13T23:44:30.073Z,102223.41
2018-11-13T23:46:56.549Z,102222.70
2018-11-13T23:49:23.457Z,102224.05
2018-11-13T23:51:50.371Z,102224.89
2018-11-13T23:54:17.278Z,102230.80
2018-11-13T23:56:44.252Z,102238.37
2018-11-13T23:59:11.187Z,102241.36
